sensor_id;sensor_type;location;lat;lon;timestamp;pressure;altitude;pressure_sealevel;temperature;humidity
58879;BME280;44660;42.664;23.266;2023-03-26T00:01:29;94084.84;;;9.96;61.09
58879;BME280;44660;42.664;23.266;2023-03-26T00:03:58;94067.75;;;9.87;61.29
58879;BME280;44660;42.664;23.266;2023-03-26T00:06:36;94074.13;;;9.86;61.37
58879;BME280;44660;42.664;23.266;2023-03-26T00:09:05;94032.88;;;9.56;61.80
58879;BME280;44660;42.664;23.266;2023-03-26T00:11:31;94063.88;;;9.72;62.09
58879;BME280;44660;42.664;23.266;2023-03-26T00:13:57;94062.41;;;9.82;61.53
58879;BME280;44660;42.664;23.266;2023-03-26T00:16:25;94052.72;;;9.70;61.50
58879;BME280;44660;42.664;23.266;2023-03-26T00:18:51;94056.53;;;9.79;61.83
58879;BME280;44660;42.664;23.266;2023-03-26T00:21:20;94068.41;;;9.99;61.38
58879;BME280;44660;42.664;23.266;2023-03-26T00:23:46;94051.81;;;9.87;61.52
58879;BME280;44660;42.664;23.266;2023-03-26T00:26:13;94063.22;;;10.09;61.34
58879;BME280;44660;42.664;23.266;2023-03-26T00:28:41;93951.56;;;9.44;61.20
58879;BME280;44660;42.664;23.266;2023-03-26T00:31:10;93987.75;;;9.78;60.49
58879;BME280;44660;42.664;23.266;2023-03-26T00:33:36;94047.44;;;10.30;60.73
58879;BME280;44660;42.664;23.266;2023-03-26T00:36:04;93992.41;;;9.93;60.75
58879;BME280;44660;42.664;23.266;2023-03-26T00:38:30;94040.94;;;10.43;60.62
58879;BME280;44660;42.664;23.266;2023-03-26T00:40:59;94038.06;;;10.50;60.37
58879;BME280;44660;42.664;23.266;2023-03-26T00:43:31;94051.88;;;10.47;60.70
58879;BME280;44660;42.664;23.266;2023-03-26T00:45:57;94028.41;;;10.38;59.93
58879;BME280;44660;42.664;23.266;2023-03-26T00:48:23;94047.63;;;10.51;60.17
58879;BME280;44660;42.664;23.266;2023-03-26T00:50:49;94049.22;;;10.47;60.29
58879;BME280;44660;42.664;23.266;2023-03-26T00:53:16;94038.22;;;10.38;60.39
58879;BME280;44660;42.664;23.266;2023-03-26T00:55:43;94057.94;;;10.42;60.92
58879;BME280;44660;42.664;23.266;2023-03-26T00:58:10;94047.03;;;10.43;60.46
58879;BME280;44660;42.664;23.266;2023-03-26T01:00:42;94054.00;;;10.50;60.06
58879;BME280;44660;42.664;23.266;2023-03-26T01:03:11;94059.84;;;10.47;59.69
58879;BME280;44660;42.664;23.266;2023-03-26T01:05:46;94050.84;;;10.53;59.18
58879;BME280;44660;42.664;23.266;2023-03-26T01:08:16;94055.28;;;10.42;59.03
58879;BME280;44660;42.664;23.266;2023-03-26T01:10:43;94054.09;;;10.33;59.21
58879;BME280;44660;42.664;23.266;2023-03-26T01:13:20;94010.88;;;10.10;59.29
58879;BME280;44660;42.664;23.266;2023-03-26T01:15:46;94058.56;;;10.27;59.34
58879;BME280;44660;42.664;23.266;2023-03-26T01:18:20;94021.19;;;10.06;59.71
58879;BME280;44660;42.664;23.266;2023-03-26T01:20:48;94044.09;;;10.12;60.01
58879;BME280;44660;42.664;23.266;2023-03-26T01:23:19;94025.41;;;10.02;60.02
58879;BME280;44660;42.664;23.266;2023-03-26T01:25:53;94056.88;;;10.16;60.39
58879;BME280;44660;42.664;23.266;2023-03-26T01:28:23;94032.72;;;9.90;60.58
58879;BME280;44660;42.664;23.266;2023-03-26T01:31:04;94025.31;;;9.92;60.90
58879;BME280;44660;42.664;23.266;2023-03-26T01:33:41;94060.59;;;10.15;61.01
58879;BME280;44660;42.664;23.266;2023-03-26T01:36:20;94055.16;;;10.04;61.70
58879;BME280;44660;42.664;23.266;2023-03-26T01:38:54;94026.31;;;9.86;61.46
58879;BME280;44660;42.664;23.266;2023-03-26T01:46:53;94067.00;;;10.19;61.23
58879;BME280;44660;42.664;23.266;2023-03-26T01:49:18;94064.34;;;10.19;61.05
58879;BME280;44660;42.664;23.266;2023-03-26T01:51:44;94055.78;;;10.11;61.08
58879;BME280;44660;42.664;23.266;2023-03-26T01:54:15;94070.44;;;10.19;61.49
58879;BME280;44660;42.664;23.266;2023-03-26T01:56:57;94073.56;;;10.38;61.09
58879;BME280;44660;42.664;23.266;2023-03-26T02:02:46;94073.41;;;10.23;61.27
58879;BME280;44660;42.664;23.266;2023-03-26T02:10:46;94058.13;;;10.08;60.85
58879;BME280;44660;42.664;23.266;2023-03-26T02:13:14;94079.03;;;10.26;60.59
58879;BME280;44660;42.664;23.266;2023-03-26T02:15:40;94083.97;;;10.40;60.29
58879;BME280;44660;42.664;23.266;2023-03-26T02:18:06;94077.88;;;10.44;60.16
58879;BME280;44660;42.664;23.266;2023-03-26T02:20:35;94065.13;;;10.41;59.94
58879;BME280;44660;42.664;23.266;2023-03-26T02:23:01;94052.25;;;10.33;59.90
58879;BME280;44660;42.664;23.266;2023-03-26T02:25:26;94018.06;;;10.09;60.00
58879;BME280;44660;42.664;23.266;2023-03-26T02:27:52;94005.81;;;10.08;60.20
58879;BME280;44660;42.664;23.266;2023-03-26T02:30:20;94061.91;;;10.39;59.98
58879;BME280;44660;42.664;23.266;2023-03-26T02:32:50;94074.75;;;10.48;59.31
58879;BME280;44660;42.664;23.266;2023-03-26T02:35:16;94074.97;;;10.19;59.86
58879;BME280;44660;42.664;23.266;2023-03-26T02:37:42;94093.03;;;10.44;59.64
58879;BME280;44660;42.664;23.266;2023-03-26T02:40:11;94069.78;;;10.34;59.43
58879;BME280;44660;42.664;23.266;2023-03-26T02:42:37;94071.28;;;10.20;59.17
58879;BME280;44660;42.664;23.266;2023-03-26T02:45:04;94076.88;;;10.23;59.18
58879;BME280;44660;42.664;23.266;2023-03-26T02:47:29;94070.63;;;10.07;59.27
58879;BME280;44660;42.664;23.266;2023-03-26T02:49:55;94068.19;;;9.78;59.88
58879;BME280;44660;42.664;23.266;2023-03-26T02:52:21;94086.34;;;9.87;60.25
58879;BME280;44660;42.664;23.266;2023-03-26T02:54:46;94115.31;;;10.16;60.13
58879;BME280;44660;42.664;23.266;2023-03-26T02:57:12;94101.94;;;10.05;59.91
58879;BME280;44660;42.664;23.266;2023-03-26T02:59:38;94132.19;;;10.04;59.99
58879;BME280;44660;42.664;23.266;2023-03-26T03:02:03;94085.16;;;9.77;60.18
58879;BME280;44660;42.664;23.266;2023-03-26T03:04:29;94108.00;;;9.78;60.38
58879;BME280;44660;42.664;23.266;2023-03-26T03:06:54;94064.56;;;9.40;60.40
58879;BME280;44660;42.664;23.266;2023-03-26T03:09:23;94112.09;;;9.64;60.66
58879;BME280;44660;42.664;23.266;2023-03-26T03:11:49;94136.44;;;9.78;60.99
58879;BME280;44660;42.664;23.266;2023-03-26T03:14:16;94122.22;;;9.67;61.03
58879;BME280;44660;42.664;23.266;2023-03-26T03:16:42;94109.38;;;9.59;61.08
58879;BME280;44660;42.664;23.266;2023-03-26T03:19:07;94127.97;;;9.59;61.24
58879;BME280;44660;42.664;23.266;2023-03-26T03:21:33;94094.00;;;9.39;61.30
58879;BME280;44660;42.664;23.266;2023-03-26T03:23:58;94145.00;;;9.63;61.57
58879;BME280;44660;42.664;23.266;2023-03-26T03:26:24;94151.72;;;9.48;61.82
58879;BME280;44660;42.664;23.266;2023-03-26T03:28:53;94148.91;;;9.38;62.40
58879;BME280;44660;42.664;23.266;2023-03-26T03:31:21;94128.09;;;9.08;62.69
58879;BME280;44660;42.664;23.266;2023-03-26T03:33:46;94153.72;;;9.02;63.48
58879;BME280;44660;42.664;23.266;2023-03-26T03:36:13;94121.66;;;8.70;63.64
58879;BME280;44660;42.664;23.266;2023-03-26T03:38:42;94136.44;;;8.82;64.23
58879;BME280;44660;42.664;23.266;2023-03-26T03:41:08;94113.84;;;8.63;64.58
58879;BME280;44660;42.664;23.266;2023-03-26T03:43:34;94129.75;;;8.63;65.05
58879;BME280;44660;42.664;23.266;2023-03-26T03:46:00;94127.44;;;8.66;64.82
58879;BME280;44660;42.664;23.266;2023-03-26T03:48:26;94129.84;;;8.85;64.36
58879;BME280;44660;42.664;23.266;2023-03-26T03:50:53;94123.09;;;8.60;64.82
58879;BME280;44660;42.664;23.266;2023-03-26T03:53:19;94122.44;;;8.53;65.22
58879;BME280;44660;42.664;23.266;2023-03-26T03:55:45;94128.81;;;8.40;65.62
58879;BME280;44660;42.664;23.266;2023-03-26T03:58:21;94109.06;;;8.31;65.26
58879;BME280;44660;42.664;23.266;2023-03-26T04:00:51;94077.91;;;8.21;65.33
58879;BME280;44660;42.664;23.266;2023-03-26T04:03:17;94127.53;;;8.43;65.52
58879;BME280;44660;42.664;23.266;2023-03-26T04:05:44;94096.13;;;8.17;65.72
58879;BME280;44660;42.664;23.266;2023-03-26T04:08:22;94100.13;;;8.20;65.82
58879;BME280;44660;42.664;23.266;2023-03-26T04:10:50;94109.44;;;8.23;65.45
58879;BME280;44660;42.664;23.266;2023-03-26T04:13:16;94148.63;;;8.49;65.16
58879;BME280;44660;42.664;23.266;2023-03-26T04:15:42;94146.81;;;8.38;65.23
58879;BME280;44660;42.664;23.266;2023-03-26T04:18:08;94135.38;;;8.21;65.38
58879;BME280;44660;42.664;23.266;2023-03-26T04:20:37;94175.13;;;8.49;65.34
58879;BME280;44660;42.664;23.266;2023-03-26T04:23:05;94178.13;;;8.41;65.59
58879;BME280;44660;42.664;23.266;2023-03-26T04:25:32;94175.97;;;8.38;65.48
58879;BME280;44660;42.664;23.266;2023-03-26T04:28:02;94198.28;;;8.42;65.52
58879;BME280;44660;42.664;23.266;2023-03-26T04:30:30;94201.19;;;8.41;65.70
58879;BME280;44660;42.664;23.266;2023-03-26T04:32:58;94194.50;;;8.38;65.90
58879;BME280;44660;42.664;23.266;2023-03-26T04:35:30;94197.91;;;8.50;65.42
58879;BME280;44660;42.664;23.266;2023-03-26T04:37:59;94215.75;;;8.55;65.38
58879;BME280;44660;42.664;23.266;2023-03-26T04:40:25;94211.16;;;8.50;65.69
58879;BME280;44660;42.664;23.266;2023-03-26T04:42:50;94197.16;;;8.38;65.58
58879;BME280;44660;42.664;23.266;2023-03-26T04:45:19;94213.16;;;8.43;65.38
58879;BME280;44660;42.664;23.266;2023-03-26T04:47:47;94231.59;;;8.67;65.12
58879;BME280;44660;42.664;23.266;2023-03-26T04:50:15;94232.34;;;8.79;64.79
58879;BME280;44660;42.664;23.266;2023-03-26T04:52:41;94213.38;;;8.71;64.18
58879;BME280;44660;42.664;23.266;2023-03-26T04:55:17;94241.34;;;8.78;63.72
58879;BME280;44660;42.664;23.266;2023-03-26T04:57:46;94242.97;;;8.79;63.54
58879;BME280;44660;42.664;23.266;2023-03-26T05:00:14;94238.78;;;8.83;63.01
58879;BME280;44660;42.664;23.266;2023-03-26T05:02:42;94223.84;;;8.77;62.56
58879;BME280;44660;42.664;23.266;2023-03-26T05:05:08;94208.97;;;8.76;62.24
58879;BME280;44660;42.664;23.266;2023-03-26T05:07:34;94216.53;;;8.85;61.93
58879;BME280;44660;42.664;23.266;2023-03-26T05:10:00;94226.84;;;8.98;61.37
58879;BME280;44660;42.664;23.266;2023-03-26T05:12:28;94215.78;;;8.72;60.52
58879;BME280;44660;42.664;23.266;2023-03-26T05:14:54;94238.91;;;9.06;60.59
58879;BME280;44660;42.664;23.266;2023-03-26T05:17:19;94244.84;;;9.30;59.99
58879;BME280;44660;42.664;23.266;2023-03-26T05:19:47;94243.38;;;9.39;59.52
58879;BME280;44660;42.664;23.266;2023-03-26T05:22:12;94234.31;;;9.35;59.38
58879;BME280;44660;42.664;23.266;2023-03-26T05:24:38;94206.41;;;9.32;59.07
58879;BME280;44660;42.664;23.266;2023-03-26T05:27:03;94238.22;;;9.50;58.86
58879;BME280;44660;42.664;23.266;2023-03-26T05:29:29;94247.41;;;9.59;58.45
58879;BME280;44660;42.664;23.266;2023-03-26T05:31:55;94249.56;;;9.62;58.77
58879;BME280;44660;42.664;23.266;2023-03-26T05:34:20;94247.34;;;9.54;58.74
58879;BME280;44660;42.664;23.266;2023-03-26T05:36:48;94266.97;;;9.53;58.69
58879;BME280;44660;42.664;23.266;2023-03-26T05:39:14;94229.97;;;9.29;59.09
58879;BME280;44660;42.664;23.266;2023-03-26T05:41:40;94265.03;;;9.48;59.24
58879;BME280;44660;42.664;23.266;2023-03-26T05:44:05;94250.56;;;9.39;59.31
58879;BME280;44660;42.664;23.266;2023-03-26T05:46:31;94260.53;;;9.48;59.33
58879;BME280;44660;42.664;23.266;2023-03-26T05:48:56;94237.19;;;9.51;59.41
58879;BME280;44660;42.664;23.266;2023-03-26T05:51:21;94259.56;;;9.94;58.85
58879;BME280;44660;42.664;23.266;2023-03-26T05:53:48;94255.84;;;9.95;58.47
58879;BME280;44660;42.664;23.266;2023-03-26T05:56:13;94268.81;;;10.08;58.33
58879;BME280;44660;42.664;23.266;2023-03-26T05:58:39;94262.34;;;10.04;57.92
58879;BME280;44660;42.664;23.266;2023-03-26T06:01:12;94222.03;;;9.68;57.66
58879;BME280;44660;42.664;23.266;2023-03-26T06:03:42;94247.94;;;9.78;57.64
58879;BME280;44660;42.664;23.266;2023-03-26T06:06:14;94200.53;;;9.30;58.07
58879;BME280;44660;42.664;23.266;2023-03-26T06:08:44;94245.06;;;9.62;57.72
58879;BME280;44660;42.664;23.266;2023-03-26T06:11:14;94248.59;;;9.68;57.30
58879;BME280;44660;42.664;23.266;2023-03-26T06:13:39;94259.78;;;9.70;57.37
58879;BME280;44660;42.664;23.266;2023-03-26T06:16:05;94239.84;;;9.90;57.08
58879;BME280;44660;42.664;23.266;2023-03-26T06:18:31;94231.19;;;9.77;57.11
58879;BME280;44660;42.664;23.266;2023-03-26T06:20:59;94245.09;;;9.85;57.14
58879;BME280;44660;42.664;23.266;2023-03-26T06:23:25;94240.50;;;9.97;56.78
58879;BME280;44660;42.664;23.266;2023-03-26T06:25:51;94243.75;;;10.04;56.82
58879;BME280;44660;42.664;23.266;2023-03-26T06:28:16;94246.06;;;10.18;56.67
58879;BME280;44660;42.664;23.266;2023-03-26T06:30:42;94245.31;;;10.00;55.83
58879;BME280;44660;42.664;23.266;2023-03-26T06:33:07;94233.06;;;9.99;55.28
58879;BME280;44660;42.664;23.266;2023-03-26T06:35:33;94204.97;;;9.81;55.91
58879;BME280;44660;42.664;23.266;2023-03-26T06:37:58;94235.66;;;9.94;56.34
58879;BME280;44660;42.664;23.266;2023-03-26T06:40:24;94226.31;;;9.91;56.18
58879;BME280;44660;42.664;23.266;2023-03-26T06:42:50;94230.47;;;10.04;55.88
58879;BME280;44660;42.664;23.266;2023-03-26T06:45:16;94238.03;;;10.12;55.52
58879;BME280;44660;42.664;23.266;2023-03-26T06:47:41;94244.13;;;10.13;55.44
58879;BME280;44660;42.664;23.266;2023-03-26T06:50:08;94242.59;;;10.17;55.37
58879;BME280;44660;42.664;23.266;2023-03-26T06:52:34;94198.97;;;9.91;54.92
58879;BME280;44660;42.664;23.266;2023-03-26T06:54:59;94238.59;;;10.15;54.59
58879;BME280;44660;42.664;23.266;2023-03-26T06:57:25;94224.06;;;10.00;54.87
58879;BME280;44660;42.664;23.266;2023-03-26T06:59:50;94257.78;;;10.22;54.51
58879;BME280;44660;42.664;23.266;2023-03-26T07:02:16;94245.00;;;10.19;54.59
58879;BME280;44660;42.664;23.266;2023-03-26T07:04:41;94240.75;;;10.18;54.28
58879;BME280;44660;42.664;23.266;2023-03-26T07:07:07;94234.31;;;10.13;53.45
58879;BME280;44660;42.664;23.266;2023-03-26T07:09:32;94234.56;;;10.34;52.96
58879;BME280;44660;42.664;23.266;2023-03-26T07:11:59;94233.16;;;10.26;52.73
58879;BME280;44660;42.664;23.266;2023-03-26T07:14:25;94264.56;;;10.52;52.64
58879;BME280;44660;42.664;23.266;2023-03-26T07:16:56;94257.47;;;10.62;52.84
58879;BME280;44660;42.664;23.266;2023-03-26T07:19:22;94241.69;;;10.51;52.86
58879;BME280;44660;42.664;23.266;2023-03-26T07:21:47;94250.38;;;10.68;52.28
58879;BME280;44660;42.664;23.266;2023-03-26T07:24:13;94256.41;;;10.86;52.13
58879;BME280;44660;42.664;23.266;2023-03-26T07:27:02;94253.66;;;10.75;51.58
58879;BME280;44660;42.664;23.266;2023-03-26T07:29:48;94231.03;;;10.73;52.22
58879;BME280;44660;42.664;23.266;2023-03-26T07:35:24;94240.19;;;11.20;50.85
58879;BME280;44660;42.664;23.266;2023-03-26T07:38:03;94241.31;;;11.62;50.04
58879;BME280;44660;42.664;23.266;2023-03-26T07:43:52;94233.94;;;13.52;45.74
58879;BME280;44660;42.664;23.266;2023-03-26T07:46:27;94224.81;;;16.52;38.90
58879;BME280;44660;42.664;23.266;2023-03-26T07:48:53;94181.91;;;20.09;32.74
58879;BME280;44660;42.664;23.266;2023-03-26T07:51:22;94193.03;;;23.17;27.42
58879;BME280;44660;42.664;23.266;2023-03-26T07:53:48;94187.53;;;24.63;23.54
58879;BME280;44660;42.664;23.266;2023-03-26T07:56:32;94174.97;;;26.73;23.12
58879;BME280;44660;42.664;23.266;2023-03-26T07:59:23;94201.97;;;27.33;19.53
58879;BME280;44660;42.664;23.266;2023-03-26T08:07:13;94181.44;;;32.85;16.21
58879;BME280;44660;42.664;23.266;2023-03-26T08:10:19;94176.78;;;34.56;13.61
58879;BME280;44660;42.664;23.266;2023-03-26T08:18:01;94131.69;;;37.70;11.32
58879;BME280;44660;42.664;23.266;2023-03-26T08:20:38;94187.56;;;38.95;10.95
58879;BME280;44660;42.664;23.266;2023-03-26T08:23:22;94167.94;;;40.04;10.80
58879;BME280;44660;42.664;23.266;2023-03-26T08:31:13;94163.44;;;41.44;9.63
58879;BME280;44660;42.664;23.266;2023-03-26T08:33:39;94177.81;;;42.41;8.59
58879;BME280;44660;42.664;23.266;2023-03-26T08:36:06;94172.50;;;41.80;8.87
58879;BME280;44660;42.664;23.266;2023-03-26T08:38:32;94174.97;;;42.00;9.10
58879;BME280;44660;42.664;23.266;2023-03-26T08:46:36;94173.56;;;42.68;8.24
58879;BME280;44660;42.664;23.266;2023-03-26T09:03:16;94172.94;;;44.31;7.25
58879;BME280;44660;42.664;23.266;2023-03-26T09:06:15;94169.19;;;44.43;7.37
58879;BME280;44660;42.664;23.266;2023-03-26T09:37:17;94133.19;;;40.86;8.23
58879;BME280;44660;42.664;23.266;2023-03-26T09:42:44;94147.50;;;40.62;8.30
58879;BME280;44660;42.664;23.266;2023-03-26T09:56:17;94112.44;;;37.63;9.75
58879;BME280;44660;42.664;23.266;2023-03-26T10:10:24;94112.94;;;33.19;12.29
58879;BME280;44660;42.664;23.266;2023-03-26T10:13:20;94093.63;;;31.46;13.02
58879;BME280;44660;42.664;23.266;2023-03-26T10:16:24;94113.50;;;30.51;13.78
58879;BME280;44660;42.664;23.266;2023-03-26T10:21:46;94099.75;;;28.93;15.01
58879;BME280;44660;42.664;23.266;2023-03-26T10:32:50;94080.38;;;26.93;15.41
58879;BME280;44660;42.664;23.266;2023-03-26T10:51:57;94030.47;;;24.03;17.60
58879;BME280;44660;42.664;23.266;2023-03-26T10:54:34;94071.91;;;23.42;18.30
58879;BME280;44660;42.664;23.266;2023-03-26T10:57:18;94042.19;;;23.58;17.75
58879;BME280;44660;42.664;23.266;2023-03-26T10:59:46;94046.50;;;23.46;17.87
58879;BME280;44660;42.664;23.266;2023-03-26T11:02:25;94062.06;;;23.37;17.75
58879;BME280;44660;42.664;23.266;2023-03-26T11:05:23;94051.69;;;23.39;18.05
58879;BME280;44660;42.664;23.266;2023-03-26T11:11:12;94055.56;;;22.32;18.08
58879;BME280;44660;42.664;23.266;2023-03-26T11:19:34;94014.28;;;22.35;18.65
58879;BME280;44660;42.664;23.266;2023-03-26T11:22:36;94048.94;;;22.51;19.09
58879;BME280;44660;42.664;23.266;2023-03-26T11:25:26;94013.03;;;22.12;18.27
58879;BME280;44660;42.664;23.266;2023-03-26T11:33:28;94025.47;;;22.76;18.63
58879;BME280;44660;42.664;23.266;2023-03-26T11:36:01;94024.59;;;22.85;18.44
58879;BME280;44660;42.664;23.266;2023-03-26T11:38:32;93999.59;;;22.66;19.03
58879;BME280;44660;42.664;23.266;2023-03-26T11:41:02;94008.09;;;22.35;18.85
58879;BME280;44660;42.664;23.266;2023-03-26T11:43:35;94021.91;;;22.42;19.08
58879;BME280;44660;42.664;23.266;2023-03-26T11:46:08;93994.56;;;22.56;18.74
58879;BME280;44660;42.664;23.266;2023-03-26T11:48:39;93978.06;;;22.49;18.92
58879;BME280;44660;42.664;23.266;2023-03-26T11:51:08;93982.44;;;22.41;19.95
58879;BME280;44660;42.664;23.266;2023-03-26T11:53:36;93970.53;;;22.12;19.94
58879;BME280;44660;42.664;23.266;2023-03-26T11:56:27;93974.28;;;22.20;20.59
58879;BME280;44660;42.664;23.266;2023-03-26T12:04:13;93959.41;;;21.84;20.85
58879;BME280;44660;42.664;23.266;2023-03-26T12:06:50;93934.16;;;21.41;19.59
58879;BME280;44660;42.664;23.266;2023-03-26T12:09:17;93951.13;;;21.59;20.16
58879;BME280;44660;42.664;23.266;2023-03-26T12:11:43;93942.09;;;21.46;20.30
58879;BME280;44660;42.664;23.266;2023-03-26T12:14:16;93877.00;;;21.21;21.09
58879;BME280;44660;42.664;23.266;2023-03-26T12:19:26;93943.78;;;21.90;20.93
58879;BME280;44660;42.664;23.266;2023-03-26T12:21:57;93870.66;;;21.47;21.06
58879;BME280;44660;42.664;23.266;2023-03-26T12:24:31;93923.63;;;21.78;19.49
58879;BME280;44660;42.664;23.266;2023-03-26T12:27:00;93930.63;;;21.79;19.75
58879;BME280;44660;42.664;23.266;2023-03-26T12:29:27;93899.19;;;21.66;19.54
58879;BME280;44660;42.664;23.266;2023-03-26T12:34:20;93917.28;;;21.44;17.76
58879;BME280;44660;42.664;23.266;2023-03-26T12:36:49;93895.44;;;21.28;18.34
58879;BME280;44660;42.664;23.266;2023-03-26T12:39:41;93871.69;;;21.04;19.18
58879;BME280;44660;42.664;23.266;2023-03-26T12:42:28;93860.44;;;20.93;18.42
58879;BME280;44660;42.664;23.266;2023-03-26T12:44:56;93899.59;;;21.26;18.07
58879;BME280;44660;42.664;23.266;2023-03-26T12:47:26;93890.16;;;21.32;17.62
58879;BME280;44660;42.664;23.266;2023-03-26T12:49:52;93891.66;;;21.20;17.65
58879;BME280;44660;42.664;23.266;2023-03-26T12:55:29;93890.03;;;21.28;17.49
58879;BME280;44660;42.664;23.266;2023-03-26T12:58:32;93896.69;;;20.92;18.76
58879;BME280;44660;42.664;23.266;2023-03-26T13:03:58;93894.19;;;20.78;20.29
58879;BME280;44660;42.664;23.266;2023-03-26T13:19:58;93863.66;;;20.21;15.69
58879;BME280;44660;42.664;23.266;2023-03-26T13:23:20;93843.19;;;20.20;16.40
58879;BME280;44660;42.664;23.266;2023-03-26T13:25:30;93879.53;;;20.23;17.72
58879;BME280;44660;42.664;23.266;2023-03-26T13:31:13;93896.34;;;20.20;25.63
58879;BME280;44660;42.664;23.266;2023-03-26T13:34:14;93859.72;;;20.10;19.22
58879;BME280;44660;42.664;23.266;2023-03-26T13:37:23;93874.78;;;20.02;19.18
58879;BME280;44660;42.664;23.266;2023-03-26T13:40:11;93876.34;;;20.12;19.40
58879;BME280;44660;42.664;23.266;2023-03-26T13:43:15;93860.34;;;19.89;19.21
58879;BME280;44660;42.664;23.266;2023-03-26T13:48:29;93801.63;;;19.25;19.03
58879;BME280;44660;42.664;23.266;2023-03-26T13:57:17;93858.09;;;19.74;19.97
58879;BME280;44660;42.664;23.266;2023-03-26T13:59:50;93861.22;;;19.32;19.58
58879;BME280;44660;42.664;23.266;2023-03-26T14:02:34;93860.09;;;19.24;20.30
58879;BME280;44660;42.664;23.266;2023-03-26T14:05:23;93864.97;;;19.05;19.77
58879;BME280;44660;42.664;23.266;2023-03-26T14:07:56;93863.66;;;18.93;20.71
58879;BME280;44660;42.664;23.266;2023-03-26T14:10:27;93846.84;;;18.97;20.66
58879;BME280;44660;42.664;23.266;2023-03-26T14:26:43;93848.84;;;18.82;21.13
58879;BME280;44660;42.664;23.266;2023-03-26T14:51:32;93831.22;;;18.36;25.42
58879;BME280;44660;42.664;23.266;2023-03-26T14:54:08;93756.38;;;17.84;23.51
58879;BME280;44660;42.664;23.266;2023-03-26T14:56:51;93838.50;;;18.35;23.43
58879;BME280;44660;42.664;23.266;2023-03-26T15:11:04;93843.53;;;18.28;23.73
58879;BME280;44660;42.664;23.266;2023-03-26T15:16:51;93819.88;;;18.16;23.52
58879;BME280;44660;42.664;23.266;2023-03-26T15:25:12;93830.53;;;17.99;24.55
58879;BME280;44660;42.664;23.266;2023-03-26T15:28:07;93846.16;;;17.97;25.58
58879;BME280;44660;42.664;23.266;2023-03-26T15:42:05;93847.00;;;17.60;26.65
58879;BME280;44660;42.664;23.266;2023-03-26T15:44:52;93855.38;;;17.59;27.52
58879;BME280;44660;42.664;23.266;2023-03-26T16:06:57;93825.81;;;16.80;28.71
58879;BME280;44660;42.664;23.266;2023-03-26T16:12:30;93844.69;;;16.61;27.43
58879;BME280;44660;42.664;23.266;2023-03-26T16:18:14;93874.72;;;16.63;30.58
58879;BME280;44660;42.664;23.266;2023-03-26T16:20:49;93847.75;;;16.41;30.35
58879;BME280;44660;42.664;23.266;2023-03-26T16:23:29;93859.66;;;16.35;29.04
58879;BME280;44660;42.664;23.266;2023-03-26T16:33:55;93871.38;;;16.25;30.92
58879;BME280;44660;42.664;23.266;2023-03-26T16:36:30;93877.91;;;16.19;31.37
58879;BME280;44660;42.664;23.266;2023-03-26T16:45:09;93880.31;;;15.87;31.12
58879;BME280;44660;42.664;23.266;2023-03-26T16:47:23;93882.81;;;15.78;31.88
58879;BME280;44660;42.664;23.266;2023-03-26T16:52:47;93810.84;;;15.14;30.61
58879;BME280;44660;42.664;23.266;2023-03-26T16:55:22;93882.16;;;15.48;31.13
58879;BME280;44660;42.664;23.266;2023-03-26T17:01:07;93859.38;;;15.08;32.06
58879;BME280;44660;42.664;23.266;2023-03-26T17:03:55;93884.84;;;15.05;32.28
58879;BME280;44660;42.664;23.266;2023-03-26T17:06:46;93887.88;;;14.98;32.48
58879;BME280;44660;42.664;23.266;2023-03-26T17:09:44;93892.78;;;14.67;33.43
58879;BME280;44660;42.664;23.266;2023-03-26T17:12:23;93890.50;;;14.50;33.66
58879;BME280;44660;42.664;23.266;2023-03-26T17:14:54;93883.69;;;14.33;33.70
58879;BME280;44660;42.664;23.266;2023-03-26T17:23:07;93896.13;;;14.19;35.04
58879;BME280;44660;42.664;23.266;2023-03-26T17:25:35;93894.91;;;14.06;34.29
58879;BME280;44660;42.664;23.266;2023-03-26T17:33:30;93900.09;;;13.92;33.68
58879;BME280;44660;42.664;23.266;2023-03-26T17:41:11;93891.72;;;13.69;34.20
58879;BME280;44660;42.664;23.266;2023-03-26T17:43:38;93892.56;;;13.60;33.84
58879;BME280;44660;42.664;23.266;2023-03-26T17:49:17;93830.06;;;13.16;34.69
58879;BME280;44660;42.664;23.266;2023-03-26T17:52:44;93888.28;;;13.64;35.19
58879;BME280;44660;42.664;23.266;2023-03-26T17:54:48;93884.84;;;13.58;35.81
58879;BME280;44660;42.664;23.266;2023-03-26T17:57:38;93886.13;;;13.66;36.31
58879;BME280;44660;42.664;23.266;2023-03-26T18:00:05;93818.88;;;13.14;35.79
58879;BME280;44660;42.664;23.266;2023-03-26T18:02:37;93825.00;;;13.14;36.23
58879;BME280;44660;42.664;23.266;2023-03-26T18:05:11;93878.78;;;13.47;36.12
58879;BME280;44660;42.664;23.266;2023-03-26T18:11:00;93847.75;;;13.06;35.63
58879;BME280;44660;42.664;23.266;2023-03-26T18:13:47;93880.13;;;13.34;36.54
58879;BME280;44660;42.664;23.266;2023-03-26T18:17:11;93797.13;;;12.86;37.79
58879;BME280;44660;42.664;23.266;2023-03-26T18:19:20;93879.34;;;13.34;37.43
58879;BME280;44660;42.664;23.266;2023-03-26T18:21:58;93878.84;;;13.37;37.10
58879;BME280;44660;42.664;23.266;2023-03-26T18:24:32;93850.91;;;13.09;37.64
58879;BME280;44660;42.664;23.266;2023-03-26T18:29:36;93865.28;;;13.18;37.28
58879;BME280;44660;42.664;23.266;2023-03-26T18:34:39;93855.19;;;13.10;38.11
58879;BME280;44660;42.664;23.266;2023-03-26T18:37:37;93864.25;;;13.14;38.58
58879;BME280;44660;42.664;23.266;2023-03-26T18:42:57;93826.00;;;12.79;38.52
58879;BME280;44660;42.664;23.266;2023-03-26T18:48:02;93810.53;;;12.70;39.62
58879;BME280;44660;42.664;23.266;2023-03-26T18:50:32;93850.97;;;12.98;40.14
58879;BME280;44660;42.664;23.266;2023-03-26T18:53:05;93849.94;;;12.94;39.41
58879;BME280;44660;42.664;23.266;2023-03-26T18:55:32;93819.59;;;12.74;39.29
58879;BME280;44660;42.664;23.266;2023-03-26T19:00:45;93809.50;;;12.66;38.70